createdAt,value
2022-12-18T00:07:28.802Z,-0.38
2022-12-18T00:17:28.833Z,-0.35
2022-12-18T00:27:28.823Z,-0.37
2022-12-18T00:37:28.846Z,-0.39
2022-12-18T00:47:28.861Z,-0.44
2022-12-18T00:57:28.881Z,-0.43
2022-12-18T01:07:28.878Z,-0.46
2022-12-18T01:17:28.865Z,-0.44
2022-12-18T01:27:28.872Z,-0.4
2022-12-18T01:37:28.890Z,-0.46
2022-12-18T01:47:28.883Z,-0.44
2022-12-18T01:57:28.852Z,-0.45
2022-12-18T02:07:28.872Z,-0.49
2022-12-18T02:17:28.997Z,-0.51
2022-12-18T02:27:28.909Z,-0.58
2022-12-18T02:37:29.011Z,-0.53
2022-12-18T02:47:28.911Z,-0.49
2022-12-18T02:57:29.061Z,-0.51
2022-12-18T03:07:28.926Z,-0.52
2022-12-18T03:17:29.050Z,-0.49
2022-12-18T03:27:28.935Z,-0.46
2022-12-18T03:37:29.072Z,-0.46
2022-12-18T03:47:28.944Z,-0.47
2022-12-18T03:57:29.069Z,-0.51
2022-12-18T04:07:28.971Z,-0.49
2022-12-18T04:17:29.072Z,-0.48
2022-12-18T04:27:28.981Z,-0.53
2022-12-18T04:37:29.100Z,-0.57
2022-12-18T04:47:28.973Z,-0.64
2022-12-18T04:57:29.105Z,-0.6
2022-12-18T05:07:28.993Z,-0.55
2022-12-18T05:17:29.117Z,-0.58
2022-12-18T05:27:29.028Z,-0.69
2022-12-18T05:37:29.153Z,-0.74
2022-12-18T05:47:29.020Z,-0.75
2022-12-18T05:57:29.161Z,-0.8
2022-12-18T06:07:29.041Z,-0.8
2022-12-18T06:17:29.172Z,-0.83
2022-12-18T06:27:29.081Z,-0.83
2022-12-18T06:37:29.223Z,-0.83
2022-12-18T06:47:29.091Z,-0.8
2022-12-18T06:57:35.033Z,-0.77
2022-12-18T07:07:29.206Z,-0.67
2022-12-18T07:17:29.085Z,-0.62
2022-12-18T07:27:29.218Z,-0.47
2022-12-18T07:37:29.120Z,-0.33
2022-12-18T07:47:35.093Z,-0.04
2022-12-18T07:57:57.743Z,0.07
2022-12-18T08:07:29.123Z,0.19
2022-12-18T08:17:29.249Z,0.34
2022-12-18T08:27:30.236Z,0.56
2022-12-18T08:37:29.263Z,0.73
2022-12-18T08:47:29.165Z,0.87
2022-12-18T08:57:29.281Z,0.99
2022-12-18T09:07:29.228Z,1.21
2022-12-18T09:17:29.353Z,1.35
2022-12-18T09:27:29.161Z,1.54
2022-12-18T09:37:29.352Z,1.66
2022-12-18T09:47:29.171Z,1.57
2022-12-18T09:57:29.284Z,1.78
2022-12-18T10:07:29.212Z,1.96
2022-12-18T10:17:29.305Z,2.26
2022-12-18T10:27:29.224Z,2.16
2022-12-18T10:37:29.322Z,2.37
2022-12-18T10:47:29.177Z,2.51
2022-12-18T10:57:29.315Z,2.57
2022-12-18T11:07:29.226Z,2.37
2022-12-18T11:17:29.487Z,2.33
2022-12-18T11:27:29.249Z,2.33
2022-12-18T11:37:29.340Z,2.5
2022-12-18T11:47:29.206Z,2.74
2022-12-18T11:57:29.325Z,2.52
2022-12-18T12:07:29.366Z,2.56
2022-12-18T12:17:29.416Z,2.44
2022-12-18T12:27:29.254Z,2.33
2022-12-18T12:37:35.182Z,2.4
2022-12-18T12:47:29.327Z,2.43
2022-12-18T12:57:29.224Z,2.58
2022-12-18T13:07:35.193Z,2.43
2022-12-18T13:17:29.370Z,2.44
2022-12-18T13:27:29.294Z,2.48
2022-12-18T13:37:29.465Z,2.17
2022-12-18T13:47:29.240Z,1.96
2022-12-18T13:57:29.382Z,1.88
2022-12-18T14:07:30.837Z,1.65
2022-12-18T14:17:29.370Z,1.52
2022-12-18T14:27:29.268Z,1.29
2022-12-18T14:37:29.377Z,1.23
2022-12-18T14:47:29.259Z,1.23
2022-12-18T14:57:29.414Z,1.02
2022-12-18T15:07:29.289Z,0.72
2022-12-18T15:17:29.419Z,0.56
2022-12-18T15:27:29.290Z,0.47
2022-12-18T15:37:29.420Z,0.36
2022-12-18T15:47:29.314Z,0.16
2022-12-18T15:57:29.426Z,0.15
2022-12-18T16:07:30.833Z,0.04
2022-12-18T16:17:29.465Z,-0.01
2022-12-18T16:27:29.335Z,-0.04
2022-12-18T16:37:29.470Z,-0.08
2022-12-18T16:47:29.385Z,0
2022-12-18T16:57:29.490Z,-0.1
2022-12-18T17:07:29.354Z,-0.18
2022-12-18T17:17:29.500Z,-0.15
2022-12-18T17:27:29.397Z,-0.22
2022-12-18T17:37:29.487Z,-0.13
2022-12-18T17:47:29.369Z,-0.18
2022-12-18T17:57:29.504Z,-0.16
2022-12-18T18:07:29.410Z,-0.22
2022-12-18T18:17:29.540Z,-0.24
2022-12-18T18:27:32.746Z,-0.29
2022-12-18T18:37:29.525Z,-0.31
2022-12-18T18:47:29.423Z,-0.33
2022-12-18T18:57:30.597Z,-0.34
2022-12-18T19:07:31.079Z,-0.34
2022-12-18T19:17:30.575Z,-0.33
2022-12-18T19:27:29.457Z,-0.38
2022-12-18T19:37:29.589Z,-0.37
2022-12-18T19:47:29.441Z,-0.31
2022-12-18T19:57:29.580Z,-0.32
2022-12-18T20:07:29.470Z,-0.33
2022-12-18T20:17:29.591Z,-0.33
2022-12-18T20:27:29.495Z,-0.38
2022-12-18T20:37:29.582Z,-0.45
2022-12-18T20:47:29.480Z,-0.47
2022-12-18T20:57:29.633Z,-0.49
2022-12-18T21:07:29.489Z,-0.55
2022-12-18T21:17:29.637Z,-0.56
2022-12-18T21:27:29.530Z,-0.53
2022-12-18T21:37:29.658Z,-0.51
2022-12-18T21:47:29.526Z,-0.55
2022-12-18T21:57:29.673Z,-0.56
2022-12-18T22:07:29.910Z,-0.61
2022-12-18T22:17:29.662Z,-0.66
2022-12-18T22:27:29.560Z,-0.64
2022-12-18T22:37:29.708Z,-0.67
2022-12-18T22:47:30.543Z,-0.72
2022-12-18T22:57:29.694Z,-0.69
2022-12-18T23:07:29.578Z,-0.69
2022-12-18T23:17:29.743Z,-0.71
2022-12-18T23:27:29.588Z,-0.74
2022-12-18T23:37:57.333Z,-0.7
2022-12-18T23:47:29.612Z,-0.74
2022-12-18T23:57:29.732Z,-0.8
